Time;durP1;ratioP1;P1;durP2;ratioP2;P2;SDS_P1;SDS_P2;PMS_P1;PMS_P2;Temp;Humidity;BMP_temperature;BMP_pressure;BME280_temperature;BME280_humidity;BME280_pressure;Samples;Min_cycle;Max_cycle;Signal;HPM_P1;HPM_P2
2023/01/11 00:00:01;;;;;;;17.00;2.58;;;;;;;6.22;94.58;99226.22;5079689;28;20046;-41
2023/01/11 00:02:28;;;;;;;13.75;3.42;;;;;;;6.20;94.70;99240.31;5070199;28;20497;-45
2023/01/11 00:04:54;;;;;;;23.95;2.40;;;;;;;6.20;94.83;99240.31;5075084;28;20051;-41
2023/01/11 00:07:21;;;;;;;12.52;2.92;;;;;;;6.21;94.76;99244.66;5088510;28;20066;-42
2023/01/11 00:09:48;;;;;;;21.58;5.13;;;;;;;6.20;95.01;99245.78;5087550;28;20048;-40
2023/01/11 00:12:15;;;;;;;10.77;2.00;;;;;;;6.19;94.67;99238.72;5078633;28;20040;-41
2023/01/11 00:14:42;;;;;;;13.63;2.97;;;;;;;6.19;94.80;99260.69;5066616;28;20127;-49
2023/01/11 00:17:08;;;;;;;10.15;1.92;;;;;;;6.22;94.87;99271.00;5089708;28;20050;-41
2023/01/11 00:19:35;;;;;;;12.73;2.45;;;;;;;6.22;94.67;99254.50;5088208;28;20054;-42
2023/01/11 00:22:02;;;;;;;11.68;2.08;;;;;;;6.21;94.68;99247.41;5088139;28;20437;-46
2023/01/11 00:24:29;;;;;;;15.45;3.17;;;;;;;6.18;94.64;99248.09;5087814;28;20398;-41
2023/01/11 00:26:55;;;;;;;5.18;1.65;;;;;;;6.15;94.30;99270.78;5087792;28;20071;-41
2023/01/11 00:29:22;;;;;;;9.13;1.58;;;;;;;6.12;94.51;99260.50;5087953;28;20056;-42
2023/01/11 00:31:49;;;;;;;13.55;3.08;;;;;;;6.09;94.40;99250.19;5087856;28;20050;-40
2023/01/11 00:34:15;;;;;;;7.00;0.90;;;;;;;6.05;94.14;99260.31;5088012;28;20044;-41
2023/01/11 00:36:42;;;;;;;7.72;1.45;;;;;;;6.04;94.16;99254.00;5087842;28;20052;-41
2023/01/11 00:39:08;;;;;;;9.35;3.55;;;;;;;6.03;94.06;99263.41;5087802;28;20052;-41
2023/01/11 00:49:58;;;;;;;8.45;1.95;;;;;;;5.95;94.07;99260.81;5087866;28;20127;-41
2023/01/11 00:52:25;;;;;;;6.03;1.40;;;;;;;5.92;93.76;99248.59;5087874;28;20044;-41
2023/01/11 00:54:51;;;;;;;13.38;1.63;;;;;;;5.91;93.89;99271.69;5087088;28;20051;-42
2023/01/11 00:57:18;;;;;;;6.50;1.15;;;;;;;5.90;94.04;99269.31;5078773;28;20055;-42
2023/01/11 00:59:45;;;;;;;8.25;2.20;;;;;;;5.88;94.08;99271.59;5087389;28;20042;-42
2023/01/11 01:02:12;;;;;;;9.77;1.65;;;;;;;5.86;93.99;99279.38;5087337;28;20445;-45
2023/01/11 01:04:39;;;;;;;11.73;2.08;;;;;;;5.87;94.18;99275.50;5080890;28;20075;-43
2023/01/11 01:07:06;;;;;;;10.82;2.60;;;;;;;5.85;94.34;99291.53;5078245;28;20047;-41
2023/01/11 01:09:33;;;;;;;13.35;1.90;;;;;;;5.84;94.21;99282.47;5083103;28;20050;-41
2023/01/11 01:12:01;;;;;;;7.82;1.75;;;;;;;5.84;94.19;99287.97;5086627;28;20066;-42
2023/01/11 01:14:28;;;;;;;12.65;2.42;;;;;;;5.84;94.35;99262.44;5087286;28;20139;-43
2023/01/11 01:17:07;;;;;;;7.82;1.88;;;;;;;5.82;94.23;99267.50;5078412;28;20044;-45
2023/01/11 01:19:36;;;;;;;7.88;2.45;;;;;;;5.80;94.40;99275.28;5074950;28;20052;-41
2023/01/11 01:22:03;;;;;;;13.48;1.75;;;;;;;5.77;94.23;99263.03;5086707;28;20043;-41
2023/01/11 01:24:31;;;;;;;13.23;2.25;;;;;;;5.77;94.33;99270.50;5087618;28;20058;-41
2023/01/11 01:26:58;;;;;;;9.55;2.60;;;;;;;5.76;94.45;99279.84;5087328;28;20282;-41
2023/01/11 01:29:24;;;;;;;11.40;2.67;;;;;;;5.74;94.16;99288.47;5087303;28;20036;-49
2023/01/11 01:31:51;;;;;;;15.95;2.72;;;;;;;5.75;94.37;99281.81;5086967;28;20054;-46
2023/01/11 01:34:18;;;;;;;18.50;2.92;;;;;;;5.76;94.37;99285.34;5084040;28;20056;-41
2023/01/11 01:36:45;;;;;;;15.07;2.28;;;;;;;5.76;93.97;99272.44;5087174;28;20047;-43
2023/01/11 01:39:12;;;;;;;12.43;3.15;;;;;;;5.76;94.18;99271.63;5087003;28;20052;-42
2023/01/11 01:41:38;;;;;;;9.38;1.73;;;;;;;5.74;93.98;99280.22;5087734;28;20094;-42
2023/01/11 01:44:43;;;;;;;9.45;1.77;;;;;;;5.73;93.99;99286.03;5086903;28;20147;-46
2023/01/11 01:47:11;;;;;;;9.00;3.97;;;;;;;5.71;93.62;99282.84;5078936;28;20047;-41
2023/01/11 01:49:38;;;;;;;12.68;3.05;;;;;;;5.68;93.88;99273.38;5091023;28;20080;-41
2023/01/11 01:52:06;;;;;;;13.57;2.25;;;;;;;5.67;93.66;99276.44;5081020;28;20054;-43
2023/01/11 01:54:38;;;;;;;13.35;1.98;;;;;;;5.66;93.91;99291.34;5090889;28;20074;-41
2023/01/11 01:57:12;;;;;;;13.60;1.92;;;;;;;5.64;93.62;99293.63;5086078;28;20677;-42
2023/01/11 01:59:40;;;;;;;10.95;2.28;;;;;;;5.62;93.73;99291.22;5085930;28;20486;-42
2023/01/11 02:02:07;;;;;;;11.32;1.92;;;;;;;5.61;93.77;99305.31;5084129;28;20051;-41
2023/01/11 02:04:40;;;;;;;10.45;2.15;;;;;;;5.60;93.70;99309.19;5087887;28;20473;-42
2023/01/11 02:07:09;;;;;;;12.25;1.70;;;;;;;5.60;93.63;99300.97;5077236;28;20077;-42
2023/01/11 02:09:39;;;;;;;6.70;1.98;;;;;;;5.58;93.57;99292.28;5084290;28;20047;-43
2023/01/11 02:12:06;;;;;;;11.07;2.00;;;;;;;5.58;93.29;99300.50;5078729;28;20051;-51
2023/01/11 02:14:36;;;;;;;6.47;1.83;;;;;;;5.57;93.05;99296.97;5088540;28;20378;-42
2023/01/11 02:17:03;;;;;;;9.57;2.33;;;;;;;5.56;93.41;99297.31;5081343;28;20052;-42
2023/01/11 02:19:48;;;;;;;7.78;2.50;;;;;;;5.53;93.31;99307.81;5089138;28;20051;-45
2023/01/11 02:22:26;;;;;;;10.25;3.03;;;;;;;5.50;93.12;99294.81;5088626;28;20650;-41
2023/01/11 02:24:59;;;;;;;15.55;2.38;;;;;;;5.49;93.29;99298.69;5088941;28;20131;-41
2023/01/11 02:27:28;;;;;;;9.00;1.73;;;;;;;5.49;93.11;99314.38;5082811;28;20054;-43
2023/01/11 02:30:07;;;;;;;10.75;1.80;;;;;;;5.49;93.18;99306.13;5088544;28;20046;-45
2023/01/11 02:33:13;;;;;;;8.82;1.98;;;;;;;5.47;92.96;99311.16;5087940;28;20447;-44
2023/01/11 02:35:59;;;;;;;14.98;1.75;;;;;;;5.47;92.79;99301.00;5077194;28;20048;-44
2023/01/11 02:38:41;;;;;;;7.30;1.55;;;;;;;5.45;92.87;99308.75;5085124;28;20043;-42
2023/01/11 02:45:01;;;;;;;11.13;2.45;;;;;;;5.41;92.88;99321.59;5083692;28;20529;-46
2023/01/11 02:47:50;;;;;;;14.82;2.78;;;;;;;5.41;92.67;99316.09;5083984;28;20048;-42
2023/01/11 02:50:25;;;;;;;13.57;3.17;;;;;;;5.42;92.77;99319.66;5079943;28;20116;-42
2023/01/11 02:53:05;;;;;;;18.33;2.85;;;;;;;5.41;92.88;99324.31;5089700;28;20048;-42
2023/01/11 02:55:40;;;;;;;12.73;2.58;;;;;;;5.40;92.80;99322.72;5089053;28;20054;-48
2023/01/11 02:58:11;;;;;;;11.63;3.17;;;;;;;5.40;92.64;99311.75;5078678;28;20040;-42
2023/01/11 03:04:24;;;;;;;15.90;1.95;;;;;;;5.47;92.51;99327.63;5044435;22;20136;-45
2023/01/11 03:07:11;;;;;;;11.10;2.38;;;;;;;5.45;92.60;99333.47;5050007;28;20383;-45
2023/01/11 03:10:01;;;;;;;9.40;1.63;;;;;;;5.46;92.44;99337.00;5036787;28;20041;-43
2023/01/11 03:12:50;;;;;;;17.80;2.10;;;;;;;5.49;92.13;99341.81;5011400;28;20052;-41
2023/01/11 03:15:17;;;;;;;11.20;2.03;;;;;;;5.48;92.16;99335.50;5048902;28;20041;-44
2023/01/11 03:17:57;;;;;;;6.28;1.30;;;;;;;5.46;92.33;99332.31;5040714;28;20071;-42
2023/01/11 03:20:29;;;;;;;9.27;1.88;;;;;;;5.47;92.36;99350.41;5048679;28;20048;-44
2023/01/11 03:23:23;;;;;;;19.40;1.90;;;;;;;5.46;92.23;99332.31;5049951;28;20045;-42
2023/01/11 03:26:17;;;;;;;8.25;1.60;;;;;;;5.43;92.20;99341.25;5036423;28;20048;-42
2023/01/11 03:29:04;;;;;;;12.38;2.63;;;;;;;5.41;92.14;99335.31;5048711;28;20301;-42
2023/01/11 03:31:38;;;;;;;19.42;2.70;;;;;;;5.40;92.40;99344.66;5048898;28;20056;-42
2023/01/11 03:34:28;;;;;;;10.20;2.33;;;;;;;5.39;92.25;99351.31;5047467;28;20056;-42
2023/01/11 03:37:19;;;;;;;8.93;2.00;;;;;;;5.38;92.44;99346.16;5025520;28;20445;-42
2023/01/11 03:39:55;;;;;;;13.73;1.77;;;;;;;5.35;92.43;99338.63;5048497;28;20052;-42
2023/01/11 03:42:25;;;;;;;8.85;1.80;;;;;;;5.33;92.43;99344.47;5038515;28;20065;-45
2023/01/11 03:44:54;;;;;;;8.25;1.85;;;;;;;5.31;92.32;99334.97;5048570;28;20410;-43
2023/01/11 03:47:24;;;;;;;6.88;1.90;;;;;;;5.29;92.40;99338.06;5048681;28;20702;-42
2023/01/11 03:49:56;;;;;;;15.85;1.75;;;;;;;5.31;92.45;99348.69;5048326;28;20064;-41
2023/01/11 03:52:29;;;;;;;8.90;1.60;;;;;;;5.32;92.46;99351.09;5048428;28;20052;-45
2023/01/11 03:54:58;;;;;;;21.98;2.67;;;;;;;5.34;92.55;99342.53;5048558;28;20056;-42
2023/01/11 03:57:31;;;;;;;12.20;2.83;;;;;;;5.31;92.53;99346.75;5048973;28;20045;-43
2023/01/11 03:59:58;;;;;;;11.40;1.90;;;;;;;5.30;92.58;99347.88;5048120;28;20041;-44
2023/01/11 04:02:32;;;;;;;12.48;2.13;;;;;;;5.28;92.50;99341.16;5050145;28;20114;-42
2023/01/11 04:04:59;;;;;;;18.27;2.75;;;;;;;5.25;92.49;99326.19;5050399;28;20406;-44
2023/01/11 04:07:25;;;;;;;4.63;2.30;;;;;;;5.25;92.58;99336.34;5068202;28;20056;-49
2023/01/11 04:09:52;;;;;;;9.45;2.13;;;;;;;5.25;92.52;99328.91;5067463;28;20052;-42
2023/01/11 04:12:19;;;;;;;11.00;2.15;;;;;;;5.26;92.61;99319.56;5068043;28;20041;-42
2023/01/11 04:14:45;;;;;;;12.82;1.63;;;;;;;5.26;92.71;99318.75;5068199;28;20115;-43
2023/01/11 04:17:12;;;;;;;12.98;4.05;;;;;;;5.26;92.63;99313.25;5058360;28;20041;-50
2023/01/11 04:19:39;;;;;;;9.63;2.00;;;;;;;5.25;92.67;99315.19;5068173;28;20040;-52
2023/01/11 04:22:05;;;;;;;15.88;2.28;;;;;;;5.24;92.74;99319.06;5067784;28;20055;-48
2023/01/11 04:24:32;;;;;;;8.07;1.98;;;;;;;5.23;92.98;99313.94;5067804;28;20055;-43
2023/01/11 04:26:59;;;;;;;16.80;2.03;;;;;;;5.22;92.77;99321.38;5067200;28;20057;-43
2023/01/11 04:29:25;;;;;;;15.13;4.78;;;;;;;5.23;92.47;99333.97;5067909;28;20052;-42
2023/01/11 04:31:52;;;;;;;9.38;2.05;;;;;;;5.23;92.47;99322.97;5067930;28;20056;-43
2023/01/11 04:34:19;;;;;;;15.15;3.47;;;;;;;5.25;92.53;99334.41;5063970;28;20049;-44
2023/01/11 04:36:45;;;;;;;10.13;2.25;;;;;;;5.24;92.33;99319.06;5067363;28;20437;-46
2023/01/11 04:39:12;;;;;;;6.53;1.75;;;;;;;5.25;92.45;99328.91;5049503;28;20493;-41
2023/01/11 04:44:24;;;;;;;7.95;2.25;;;;;;;5.28;92.24;99332.91;5067346;28;20064;-43
2023/01/11 04:46:51;;;;;;;6.57;1.45;;;;;;;5.27;91.90;99329.38;5049021;28;20059;-42
2023/01/11 04:49:18;;;;;;;13.55;3.10;;;;;;;5.27;91.83;99334.84;5064100;28;20495;-42
2023/01/11 04:51:44;;;;;;;10.45;1.48;;;;;;;5.26;92.03;99333.28;5066862;28;20059;-42
2023/01/11 04:54:11;;;;;;;15.75;3.67;;;;;;;5.26;91.99;99333.28;5067470;28;20055;-50
2023/01/11 04:56:38;;;;;;;9.30;2.08;;;;;;;5.26;91.92;99344.25;5066901;28;20037;-42
2023/01/11 04:59:04;;;;;;;8.00;1.83;;;;;;;5.26;91.93;99351.69;5067135;28;20488;-42
2023/01/11 05:01:31;;;;;;;10.45;3.08;;;;;;;5.26;91.70;99338.75;5067281;28;20393;-42
2023/01/11 05:03:58;;;;;;;9.77;1.70;;;;;;;5.26;91.69;99355.22;5066360;28;20056;-43
2023/01/11 05:06:25;;;;;;;14.13;1.98;;;;;;;5.26;91.63;99349.75;5067569;28;20127;-44
2023/01/11 05:08:51;;;;;;;10.70;2.70;;;;;;;5.27;91.91;99345.81;5066694;28;20048;-48
2023/01/11 05:11:18;;;;;;;9.63;2.67;;;;;;;5.26;91.68;99347.00;5066990;28;20049;-42
2023/01/11 05:13:45;;;;;;;21.38;2.47;;;;;;;5.25;91.62;99337.16;5065891;28;20049;-46
2023/01/11 05:16:16;;;;;;;11.40;2.50;;;;;;;5.25;91.67;99341.84;5054479;28;20492;-42
2023/01/11 05:18:46;;;;;;;13.53;2.40;;;;;;;5.24;91.54;99341.03;5066837;28;20045;-43
2023/01/11 05:21:15;;;;;;;9.80;2.75;;;;;;;5.22;91.56;99332.34;5065743;28;20055;-42
2023/01/11 05:23:42;;;;;;;13.18;4.53;;;;;;;5.23;91.51;99338.63;5067028;28;20055;-48
2023/01/11 05:26:12;;;;;;;16.45;2.33;;;;;;;5.24;91.65;99335.53;5066996;28;20044;-42
2023/01/11 05:28:39;;;;;;;11.82;2.05;;;;;;;5.24;91.68;99335.53;5066854;28;20068;-41
2023/01/11 05:31:06;;;;;;;9.25;1.88;;;;;;;5.25;91.51;99326.19;5066705;28;20412;-42
2023/01/11 05:33:32;;;;;;;10.65;1.83;;;;;;;5.28;91.59;99330.16;5065172;28;20552;-44
2023/01/11 05:36:02;;;;;;;12.75;3.00;;;;;;;5.28;91.57;99328.22;5066548;28;20274;-42
2023/01/11 05:38:29;;;;;;;15.98;3.10;;;;;;;5.27;91.56;99337.59;5066662;28;20592;-42
2023/01/11 05:41:01;;;;;;;15.15;3.42;;;;;;;5.30;91.53;99319.66;5067567;28;20040;-41
2023/01/11 05:43:29;;;;;;;20.92;2.85;;;;;;;5.34;91.79;99335.09;5066756;28;20801;-43
2023/01/11 05:45:57;;;;;;;15.40;2.58;;;;;;;5.39;91.63;99328.56;5066420;28;20041;-43
2023/01/11 05:48:24;;;;;;;11.52;3.13;;;;;;;5.45;91.77;99330.72;5066523;28;20127;-42
2023/01/11 05:50:52;;;;;;;21.95;3.38;;;;;;;5.49;91.76;99315.16;5067083;28;20053;-46
2023/01/11 05:53:21;;;;;;;20.73;4.78;;;;;;;5.53;91.43;99327.03;5066852;28;20067;-43
2023/01/11 05:55:57;;;;;;;18.75;3.10;;;;;;;5.56;91.51;99322.03;5066963;28;20048;-44
2023/01/11 05:58:25;;;;;;;23.52;2.78;;;;;;;5.57;91.27;99323.59;5054407;28;20059;-44
2023/01/11 06:00:54;;;;;;;14.35;3.83;;;;;;;5.57;91.14;99323.59;5066550;28;20036;-50
2023/01/11 06:03:23;;;;;;;18.42;4.30;;;;;;;5.58;91.14;99316.97;5066692;28;20056;-46
2023/01/11 06:05:50;;;;;;;11.35;2.97;;;;;;;5.59;91.18;99313.09;5067168;28;20053;-43
2023/01/11 06:08:17;;;;;;;19.35;2.60;;;;;;;5.60;91.10;99315.50;5066794;28;20048;-42
2023/01/11 06:10:53;;;;;;;16.02;3.78;;;;;;;5.63;91.09;99287.34;5066805;28;20048;-42
2023/01/11 06:13:27;;;;;;;15.25;2.85;;;;;;;5.65;91.02;99312.50;5067443;28;20102;-49
2023/01/11 06:15:59;;;;;;;24.83;4.60;;;;;;;5.69;91.25;99320.84;5066239;28;20064;-47
2023/01/11 06:18:34;;;;;;;26.20;2.95;;;;;;;5.70;91.36;99322.44;5059055;28;20467;-42
2023/01/11 06:21:01;;;;;;;16.05;2.95;;;;;;;5.71;90.95;99321.28;5053839;28;20040;-42
2023/01/11 06:23:30;;;;;;;12.63;2.67;;;;;;;5.73;91.10;99351.94;5066478;28;20040;-42
2023/01/11 06:26:04;;;;;;;15.88;2.67;;;;;;;5.75;90.91;99344.16;5066355;28;20047;-44
2023/01/11 06:28:31;;;;;;;22.35;3.00;;;;;;;5.75;90.91;99355.94;5066237;28;20106;-42
2023/01/11 06:30:58;;;;;;;10.15;3.17;;;;;;;5.75;90.98;99333.16;5075180;28;20447;-41
2023/01/11 06:33:27;;;;;;;18.10;2.47;;;;;;;5.74;90.91;99348.06;5070891;28;20474;-42
2023/01/11 06:35:54;;;;;;;12.68;2.97;;;;;;;5.69;90.92;99329.09;5069763;28;20300;-43
2023/01/11 06:38:23;;;;;;;11.93;2.97;;;;;;;5.64;91.13;99334.81;5069946;28;20056;-48
2023/01/11 06:41:00;;;;;;;20.73;2.50;;;;;;;5.58;90.94;99325.22;5070350;28;20090;-45
2023/01/11 06:43:28;;;;;;;12.30;2.65;;;;;;;5.54;90.94;99339.63;5069413;28;20041;-45
2023/01/11 06:45:55;;;;;;;18.88;2.80;;;;;;;5.50;91.27;99346.97;5051867;28;20052;-43
2023/01/11 06:48:22;;;;;;;15.05;2.25;;;;;;;5.48;91.33;99343.75;5069711;28;20048;-43
2023/01/11 06:50:52;;;;;;;11.00;3.40;;;;;;;5.48;91.50;99354.72;5069820;28;20047;-45
2023/01/11 06:53:19;;;;;;;14.25;3.10;;;;;;;5.50;91.37;99348.91;5069415;28;20042;-43
2023/01/11 06:55:50;;;;;;;12.32;1.88;;;;;;;5.50;91.35;99349.72;5069742;28;20076;-42
2023/01/11 06:58:18;;;;;;;18.25;2.17;;;;;;;5.50;91.22;99341.47;5069190;28;20045;-43
2023/01/11 07:00:45;;;;;;;17.00;3.53;;;;;;;5.49;91.32;99345.38;5069637;28;20426;-42
2023/01/11 07:03:13;;;;;;;14.68;2.10;;;;;;;5.49;91.37;99350.03;5069130;28;20137;-41
2023/01/11 07:05:42;;;;;;;12.68;3.38;;;;;;;5.46;91.20;99348.78;5069414;28;20447;-46
2023/01/11 07:08:09;;;;;;;12.77;2.47;;;;;;;5.44;91.25;99351.09;5069352;28;20058;-47
2023/01/11 07:10:36;;;;;;;12.75;2.70;;;;;;;5.45;91.41;99354.63;5069531;28;20150;-42
2023/01/11 07:13:03;;;;;;;12.77;1.83;;;;;;;5.45;91.40;99333.47;5069546;28;20524;-42
2023/01/11 07:15:30;;;;;;;11.50;2.65;;;;;;;5.49;91.54;99336.31;5068788;28;20094;-42
2023/01/11 07:17:58;;;;;;;14.05;3.00;;;;;;;5.50;91.41;99338.75;5060500;28;20107;-42
2023/01/11 07:20:26;;;;;;;16.05;2.58;;;;;;;5.50;91.38;99327.75;5069045;28;20060;-44
2023/01/11 07:22:58;;;;;;;12.05;1.98;;;;;;;5.50;91.42;99322.28;5069055;28;20497;-44
2023/01/11 07:25:26;;;;;;;14.68;3.00;;;;;;;5.50;91.31;99327.75;5068837;28;20047;-46
2023/01/11 07:28:02;;;;;;;12.32;2.33;;;;;;;5.54;91.48;99328.66;5069078;28;20417;-42
2023/01/11 07:30:31;;;;;;;21.33;2.75;;;;;;;5.56;91.48;99346.72;5068630;28;20055;-42
2023/01/11 07:33:05;;;;;;;13.65;2.63;;;;;;;5.57;91.30;99323.59;5050424;28;20037;-44
2023/01/11 07:35:32;;;;;;;23.67;4.00;;;;;;;5.60;91.50;99328.41;5068655;28;20131;-47
2023/01/11 07:37:59;;;;;;;18.17;3.63;;;;;;;5.63;91.35;99333.22;5069388;28;20223;-42
2023/01/11 07:40:26;;;;;;;7.55;1.92;;;;;;;5.67;91.42;99334.09;5068474;28;20115;-42
2023/01/11 07:45:42;;;;;;;4.88;1.55;;;;;;;5.76;91.22;99329.28;5068437;28;20346;-45
2023/01/11 07:48:14;;;;;;;18.70;3.90;;;;;;;5.76;91.33;99324.59;5068164;28;20098;-42
2023/01/11 07:50:41;;;;;;;16.88;2.22;;;;;;;5.73;91.28;99324.50;5068961;28;20044;-43
2023/01/11 07:53:11;;;;;;;11.38;1.30;;;;;;;5.70;91.18;99336.97;5068491;28;20322;-44
2023/01/11 07:55:39;;;;;;;11.75;2.22;;;;;;;5.74;91.28;99323.34;5068878;28;20048;-42
2023/01/11 07:58:07;;;;;;;14.18;2.20;;;;;;;5.78;91.21;99318.75;5068153;28;20086;-50
2023/01/11 08:00:34;;;;;;;11.68;1.92;;;;;;;5.76;91.18;99308.13;5068316;28;20087;-42
2023/01/11 08:03:01;;;;;;;10.43;2.20;;;;;;;5.76;91.01;99313.63;5068058;28;20049;-42
2023/01/11 08:05:28;;;;;;;9.23;1.95;;;;;;;5.74;91.03;99321.41;5068441;28;20053;-42
2023/01/11 08:07:55;;;;;;;13.23;3.83;;;;;;;5.71;91.11;99321.28;5067878;28;20048;-43
2023/01/11 08:10:22;;;;;;;14.73;2.22;;;;;;;5.69;91.03;99324.41;5068056;28;20105;-42
2023/01/11 08:15:41;;;;;;;10.32;2.42;;;;;;;5.66;90.92;99340.75;5067991;28;20090;-50
2023/01/11 08:18:10;;;;;;;9.35;2.00;;;;;;;5.66;91.03;99341.56;5061001;28;20573;-45
2023/01/11 08:20:37;;;;;;;14.07;2.33;;;;;;;5.67;91.06;99354.13;5067747;28;20060;-42
2023/01/11 08:23:06;;;;;;;7.70;1.63;;;;;;;5.70;91.15;99338.91;5067615;28;20448;-47
2023/01/11 08:25:33;;;;;;;6.43;1.27;;;;;;;5.73;91.20;99338.22;5067444;28;20090;-44
2023/01/11 08:28:04;;;;;;;10.85;2.03;;;;;;;5.71;91.02;99326.78;5067749;28;20049;-45
2023/01/11 08:30:31;;;;;;;13.63;2.33;;;;;;;5.70;91.00;99319.69;5068335;28;20086;-42
2023/01/11 08:32:59;;;;;;;7.65;1.73;;;;;;;5.69;91.07;99326.34;5067081;28;20464;-41
2023/01/11 08:35:26;;;;;;;15.68;2.40;;;;;;;5.70;91.09;99341.66;5066453;28;20047;-42
2023/01/11 08:37:53;;;;;;;12.85;1.80;;;;;;;5.73;91.47;99330.78;5067440;28;20106;-43
2023/01/11 08:40:20;;;;;;;6.63;1.48;;;;;;;5.74;91.48;99326.09;5067227;28;20476;-43
2023/01/11 08:42:55;;;;;;;4.43;1.00;;;;;;;5.75;91.21;99328.47;5067411;28;20056;-42
2023/01/11 08:45:21;;;;;;;11.70;1.50;;;;;;;5.75;90.99;99327.69;5049846;28;20433;-44
2023/01/11 08:47:50;;;;;;;6.03;1.30;;;;;;;5.74;91.02;99340.63;5067311;28;20599;-43
2023/01/11 08:50:18;;;;;;;5.78;1.00;;;;;;;5.74;90.88;99348.06;5067036;28;20075;-43
2023/01/11 08:52:45;;;;;;;2.95;1.15;;;;;;;5.71;90.93;99326.78;5067177;28;20045;-51
2023/01/11 08:55:12;;;;;;;4.28;1.55;;;;;;;5.69;91.00;99334.56;5067415;28;20128;-41
2023/01/11 08:57:39;;;;;;;2.55;1.20;;;;;;;5.68;90.96;99363.16;5067198;28;20051;-44
2023/01/11 09:00:07;;;;;;;5.65;0.90;;;;;;;5.68;91.18;99346.69;5049495;28;20077;-49
2023/01/11 09:02:34;;;;;;;4.18;1.00;;;;;;;5.67;91.26;99343.16;5063605;28;20517;-41
2023/01/11 09:05:01;;;;;;;3.08;0.98;;;;;;;5.66;91.00;99338.00;5063594;28;20040;-43
2023/01/11 09:07:28;;;;;;;6.22;2.42;;;;;;;5.66;91.35;99346.25;5068570;28;20045;-43
2023/01/11 09:09:56;;;;;;;4.13;0.80;;;;;;;5.63;91.40;99334.00;5051515;28;20072;-43
2023/01/11 09:12:23;;;;;;;6.88;1.35;;;;;;;5.63;91.60;99317.53;5069160;28;20044;-45
2023/01/11 09:14:50;;;;;;;11.43;1.45;;;;;;;5.61;91.56;99300.63;5069213;28;20048;-42
2023/01/11 09:17:16;;;;;;;7.70;1.27;;;;;;;5.58;91.38;99317.78;5066725;28;20047;-42
2023/01/11 09:19:44;;;;;;;6.45;1.08;;;;;;;5.57;91.66;99313.44;5068623;28;20127;-41
2023/01/11 09:22:11;;;;;;;5.72;1.20;;;;;;;5.58;91.63;99327.97;5078116;28;20045;-48
2023/01/11 09:24:38;;;;;;;11.50;1.58;;;;;;;5.57;91.82;99307.94;5069071;28;20153;-43
2023/01/11 09:27:04;;;;;;;8.30;1.52;;;;;;;5.56;91.83;99297.31;5059823;28;20055;-52
2023/01/11 09:29:32;;;;;;;4.63;1.70;;;;;;;5.58;91.75;99301.31;5065311;28;20056;-42
2023/01/11 09:32:03;;;;;;;6.07;1.17;;;;;;;5.63;92.03;99297.53;5068556;28;20398;-43
2023/01/11 09:34:29;;;;;;;8.80;1.40;;;;;;;5.67;91.95;99293.72;5059157;28;20056;-41
2023/01/11 09:37:01;;;;;;;5.53;1.63;;;;;;;5.71;91.99;99293.84;5069412;28;20051;-42
2023/01/11 09:39:28;;;;;;;7.05;1.33;;;;;;;5.75;92.21;99294.72;5068485;28;20037;-43
2023/01/11 09:42:30;;;;;;;12.70;1.55;;;;;;;5.79;92.11;99301.94;5068416;28;20140;-43
2023/01/11 09:45:31;;;;;;;6.03;1.30;;;;;;;5.80;92.41;99300.78;5065122;28;20040;-41
2023/01/11 09:48:20;;;;;;;14.93;3.97;;;;;;;5.81;92.65;99293.34;5023561;28;20053;-42
2023/01/11 09:50:47;;;;;;;8.32;2.70;;;;;;;5.80;92.49;99283.53;5050255;28;20057;-45
2023/01/11 09:53:14;;;;;;;5.80;1.48;;;;;;;5.82;92.83;99294.94;5068621;28;20040;-45
2023/01/11 09:55:45;;;;;;;19.40;2.35;;;;;;;5.84;92.77;99295.41;5068889;28;20052;-44
2023/01/11 09:58:32;;;;;;;7.18;1.55;;;;;;;5.86;93.11;99296.66;5067573;28;20387;-42
2023/01/11 10:01:16;;;;;;;10.50;2.90;;;;;;;5.90;92.87;99283.06;5068145;28;20545;-45
2023/01/11 10:04:05;;;;;;;11.40;2.30;;;;;;;5.91;93.00;99296.41;5068137;28;20084;-45
2023/01/11 10:06:41;;;;;;;8.93;2.17;;;;;;;5.92;93.05;99300.78;5068246;28;20055;-43
2023/01/11 10:09:23;;;;;;;8.82;1.48;;;;;;;5.95;93.01;99300.09;5071937;28;20047;-44
2023/01/11 10:12:24;;;;;;;12.00;1.90;;;;;;;5.98;92.96;99315.06;5072463;28;20052;-40
2023/01/11 10:15:37;;;;;;;12.48;2.08;;;;;;;5.99;93.06;99333.94;5072343;28;20567;-41
2023/01/11 10:19:04;;;;;;;14.27;2.15;;;;;;;6.01;92.94;99312.41;5063682;28;20663;-42
2023/01/11 10:22:22;;;;;;;9.20;1.70;;;;;;;6.01;93.14;99311.63;5064994;28;20048;-42
2023/01/11 10:25:06;;;;;;;9.73;1.90;;;;;;;6.00;93.20;99299.03;5058462;28;20155;-42
2023/01/11 10:27:38;;;;;;;4.97;1.70;;;;;;;5.99;93.41;99300.97;5054203;28;20509;-44
2023/01/11 10:39:14;;;;;;;12.57;3.20;;;;;;;6.00;93.66;99307.28;5071342;28;20516;-42
2023/01/11 10:41:56;;;;;;;12.23;2.38;;;;;;;5.98;93.67;99324.09;5072139;28;20036;-45
2023/01/11 10:44:39;;;;;;;8.88;2.55;;;;;;;5.99;93.62;99308.41;5071971;28;20048;-42
2023/01/11 10:47:15;;;;;;;5.00;1.65;;;;;;;5.98;93.67;99306.81;5072444;28;20041;-46
2023/01/11 10:49:55;;;;;;;8.85;3.60;;;;;;;5.97;93.43;99316.19;5071066;28;20045;-42
2023/01/11 10:52:33;;;;;;;6.28;1.23;;;;;;;5.96;93.56;99317.34;5071364;28;20510;-45
2023/01/11 10:55:11;;;;;;;4.57;0.60;;;;;;;5.92;93.42;99306.28;5071401;28;20063;-42
2023/01/11 10:57:55;;;;;;;2.17;1.50;;;;;;;5.86;93.31;99290.38;5070927;28;20049;-43
2023/01/11 11:00:52;;;;;;;6.05;1.23;;;;;;;5.82;93.37;99284.78;5071427;28;20075;-42
2023/01/11 11:03:44;;;;;;;2.80;1.25;;;;;;;5.78;93.32;99291.28;5071095;28;20454;-48
2023/01/11 11:06:34;;;;;;;8.13;1.10;;;;;;;5.75;93.32;99278.25;5071318;28;20505;-42
2023/01/11 11:09:21;;;;;;;4.68;0.95;;;;;;;5.71;93.38;99278.16;5063136;28;20053;-42
2023/01/11 11:12:24;;;;;;;3.78;1.25;;;;;;;5.69;93.35;99276.91;5053163;28;20043;-44
2023/01/11 11:15:17;;;;;;;2.92;0.60;;;;;;;5.68;93.17;99289.84;5058030;28;20076;-53
2023/01/11 11:17:49;;;;;;;6.70;0.80;;;;;;;5.68;93.08;99292.59;5060780;28;20053;-42
2023/01/11 11:20:23;;;;;;;10.98;2.22;;;;;;;5.66;93.22;99283.91;5077256;28;20070;-43
2023/01/11 11:22:53;;;;;;;4.15;1.10;;;;;;;5.65;93.23;99285.03;5058549;28;20048;-49
2023/01/11 11:25:30;;;;;;;3.92;0.82;;;;;;;5.62;93.25;99293.16;5070967;28;20044;-43
2023/01/11 11:28:29;;;;;;;7.85;2.78;;;;;;;5.61;93.23;99289.66;5070666;28;20040;-43
2023/01/11 11:31:01;;;;;;;7.40;1.00;;;;;;;5.59;93.15;99291.13;5055147;28;20041;-41
2023/01/11 11:33:38;;;;;;;6.38;1.17;;;;;;;5.56;93.38;99281.63;5068265;28;20136;-43
2023/01/11 11:36:07;;;;;;;3.58;0.80;;;;;;;5.61;93.35;99283.34;5071182;28;20047;-45
2023/01/11 11:38:35;;;;;;;2.92;0.52;;;;;;;5.66;93.28;99263.88;5070497;28;20053;-45
2023/01/11 11:41:16;;;;;;;2.85;0.40;;;;;;;5.74;93.44;99271.19;5070566;28;20162;-47
2023/01/11 11:43:45;;;;;;;2.17;0.52;;;;;;;5.77;93.09;99270.50;5070498;28;20076;-44
2023/01/11 11:46:18;;;;;;;3.22;1.40;;;;;;;5.77;93.32;99259.50;5070533;28;20778;-46
2023/01/11 11:49:17;;;;;;;1.10;0.43;;;;;;;5.76;93.17;99246.91;5070560;28;20039;-42
2023/01/11 11:51:46;;;;;;;1.50;0.52;;;;;;;5.75;93.14;99253.53;5069962;28;20072;-43
2023/01/11 11:54:24;;;;;;;1.30;0.38;;;;;;;5.77;93.37;99245.78;5053062;28;20060;-42
2023/01/11 11:56:51;;;;;;;1.70;0.50;;;;;;;5.82;93.10;99227.09;5057793;28;20044;-42
2023/01/11 11:59:21;;;;;;;2.60;1.45;;;;;;;5.85;92.94;99218.16;5069824;28;20084;-45
2023/01/11 12:02:04;;;;;;;2.97;0.75;;;;;;;5.91;93.11;99237.94;5070832;28;20129;-46
2023/01/11 12:04:45;;;;;;;1.73;0.57;;;;;;;5.95;93.12;99236.91;5069646;28;20087;-43
2023/01/11 12:07:15;;;;;;;1.10;0.30;;;;;;;6.03;92.98;99224.97;5070558;28;20076;-42
2023/01/11 12:10:05;;;;;;;0.90;0.40;;;;;;;6.14;93.12;99222.50;5064112;28;20068;-43
2023/01/11 12:12:56;;;;;;;2.63;0.70;;;;;;;6.24;92.92;99224.72;5066633;28;20458;-46
2023/01/11 12:15:26;;;;;;;3.38;1.95;;;;;;;6.30;92.88;99223.28;5070237;28;20529;-45
2023/01/11 12:17:53;;;;;;;3.05;0.85;;;;;;;6.37;92.80;99228.97;5060433;28;20055;-42
2023/01/11 12:20:29;;;;;;;3.42;0.73;;;;;;;6.38;92.90;99230.56;5069748;28;20474;-43
2023/01/11 12:23:20;;;;;;;3.20;0.90;;;;;;;6.41;92.61;99223.56;5069797;28;20051;-45
2023/01/11 12:26:11;;;;;;;2.08;0.95;;;;;;;6.40;92.63;99239.28;5069626;28;20049;-42
2023/01/11 12:29:17;;;;;;;7.90;2.63;;;;;;;6.38;92.52;99240.78;5070534;28;20079;-41
2023/01/11 12:31:56;;;;;;;3.72;1.20;;;;;;;6.37;92.47;99261.16;5069056;28;20063;-51
2023/01/11 12:34:32;;;;;;;4.30;0.73;;;;;;;6.32;92.75;99231.19;5051566;28;20139;-42